Time;durP1;ratioP1;P1;durP2;ratioP2;P2;SDS_P1;SDS_P2;PMS_P1;PMS_P2;Temp;Humidity;BMP_temperature;BMP_pressure;BME280_temperature;BME280_humidity;BME280_pressure;Samples;Min_cycle;Max_cycle;Signal;HPM_P1;HPM_P2
2023/08/13 00:01:23;;;;;;;6.80;6.30;;;23.80;99.90;;;;;;6183002;23;20001;-76
2023/08/13 00:03:49;;;;;;;6.25;5.75;;;23.90;99.90;;;;;;6183297;23;19993;-76
2023/08/13 00:06:15;;;;;;;6.03;5.70;;;23.80;99.90;;;;;;6184419;23;20031;-76
2023/08/13 00:08:40;;;;;;;6.95;6.45;;;23.80;99.90;;;;;;6182605;23;20150;-76
2023/08/13 00:11:09;;;;;;;6.38;5.70;;;23.80;99.90;;;;;;6184443;23;20069;-76
2023/08/13 00:13:35;;;;;;;6.28;5.82;;;23.80;99.90;;;;;;6182262;23;20029;-76
2023/08/13 00:16:00;;;;;;;7.15;6.65;;;23.80;99.90;;;;;;6184355;23;20004;-76
2023/08/13 00:18:28;;;;;;;7.57;5.95;;;23.70;99.90;;;;;;6184173;23;20480;-76
2023/08/13 00:20:57;;;;;;;6.28;5.88;;;23.70;99.90;;;;;;6184434;23;20009;-77
2023/08/13 00:23:22;;;;;;;6.80;6.05;;;23.80;99.90;;;;;;6183972;23;20001;-76
2023/08/13 00:25:48;;;;;;;6.40;5.90;;;23.70;99.90;;;;;;6183481;23;20090;-76
2023/08/13 00:28:13;;;;;;;6.80;6.18;;;23.70;99.90;;;;;;6184049;23;20001;-76
2023/08/13 00:30:39;;;;;;;7.18;6.57;;;23.70;99.90;;;;;;6184077;23;20012;-76
2023/08/13 00:33:05;;;;;;;8.13;6.13;;;23.70;99.90;;;;;;6183894;23;20001;-76
2023/08/13 00:35:32;;;;;;;7.05;6.55;;;23.70;99.90;;;;;;6183963;23;19997;-76
2023/08/13 00:37:57;;;;;;;7.45;6.80;;;23.60;99.90;;;;;;6183998;23;20001;-76
2023/08/13 00:40:23;;;;;;;6.45;5.95;;;23.60;99.90;;;;;;6184063;23;20001;-76
2023/08/13 00:42:49;;;;;;;6.53;6.03;;;23.60;99.90;;;;;;6183847;23;20005;-76
2023/08/13 00:45:15;;;;;;;7.22;6.63;;;23.60;99.90;;;;;;6183865;23;20000;-76
2023/08/13 00:47:41;;;;;;;7.45;6.85;;;23.60;99.90;;;;;;6183882;23;19997;-76
2023/08/13 00:50:07;;;;;;;6.78;6.28;;;23.60;99.90;;;;;;6184187;23;20005;-76
2023/08/13 00:52:33;;;;;;;7.20;6.28;;;23.60;99.90;;;;;;6183625;23;20449;-76
2023/08/13 00:54:59;;;;;;;6.65;6.13;;;23.50;99.90;;;;;;6183926;23;20009;-76
2023/08/13 00:57:25;;;;;;;7.28;6.57;;;23.50;99.90;;;;;;6183589;23;20080;-76
2023/08/13 00:59:51;;;;;;;8.10;6.63;;;23.40;99.90;;;;;;6178281;23;20344;-76
2023/08/13 01:02:17;;;;;;;8.02;7.28;;;23.40;99.90;;;;;;6177932;23;20252;-76
2023/08/13 01:04:43;;;;;;;6.88;6.28;;;23.40;99.90;;;;;;6179364;23;20168;-76
2023/08/13 01:07:25;;;;;;;6.82;6.40;;;23.40;99.90;;;;;;6176397;23;20340;-76
2023/08/13 01:10:09;;;;;;;6.80;6.32;;;23.40;99.90;;;;;;6179219;23;20476;-76
2023/08/13 01:12:43;;;;;;;6.60;6.10;;;23.40;99.90;;;;;;6179130;23;20009;-76
2023/08/13 01:15:17;;;;;;;7.38;6.75;;;23.50;99.90;;;;;;6179207;23;20079;-76
2023/08/13 01:17:45;;;;;;;6.10;5.60;;;23.40;99.90;;;;;;6178344;23;20079;-76
2023/08/13 01:20:12;;;;;;;7.55;6.82;;;23.40;99.90;;;;;;6181290;23;20008;-76
2023/08/13 01:22:58;;;;;;;6.78;6.30;;;23.40;99.90;;;;;;6183646;23;20004;-76
2023/08/13 01:25:27;;;;;;;6.60;6.00;;;23.40;99.90;;;;;;6183823;23;20329;-74
2023/08/13 01:28:21;;;;;;;6.57;6.18;;;23.40;99.90;;;;;;6181544;23;20001;-73
2023/08/13 01:31:06;;;;;;;7.50;6.15;;;23.40;99.90;;;;;;6183551;23;20001;-74
2023/08/13 01:33:34;;;;;;;7.20;6.70;;;23.40;99.90;;;;;;6183484;23;20012;-74
2023/08/13 01:36:02;;;;;;;6.97;6.22;;;23.40;99.90;;;;;;6181963;23;20005;-74
2023/08/13 01:38:31;;;;;;;6.97;6.28;;;23.40;99.90;;;;;;6183447;23;20386;-74
2023/08/13 01:40:57;;;;;;;6.68;6.28;;;23.40;99.90;;;;;;6183369;23;20068;-74
2023/08/13 01:43:23;;;;;;;7.40;6.70;;;23.40;99.90;;;;;;6183305;23;20001;-73
2023/08/13 01:45:48;;;;;;;7.03;6.45;;;23.30;99.90;;;;;;6182582;23;20384;-73
2023/08/13 01:48:14;;;;;;;6.78;6.25;;;23.30;99.90;;;;;;6183075;23;20004;-73
2023/08/13 01:50:40;;;;;;;8.02;6.93;;;23.30;99.90;;;;;;6183315;23;20005;-74
2023/08/13 01:53:06;;;;;;;6.65;6.20;;;23.30;99.90;;;;;;6183229;23;20015;-74
2023/08/13 01:55:31;;;;;;;6.80;6.30;;;23.20;99.90;;;;;;6183374;23;20016;-73
2023/08/13 01:57:57;;;;;;;6.95;6.40;;;23.20;99.90;;;;;;6183390;23;20388;-74
2023/08/13 02:00:23;;;;;;;7.53;6.93;;;23.20;99.90;;;;;;6183280;23;20093;-74
2023/08/13 02:02:52;;;;;;;12.35;6.82;;;23.30;99.90;;;;;;6183124;23;20004;-73
2023/08/13 02:05:17;;;;;;;6.80;6.28;;;23.30;99.90;;;;;;6181785;23;20001;-74
2023/08/13 02:07:43;;;;;;;7.45;6.65;;;23.30;99.90;;;;;;6183319;23;20001;-73
2023/08/13 02:10:09;;;;;;;7.50;6.72;;;23.30;99.90;;;;;;6181727;23;20144;-74
2023/08/13 02:12:35;;;;;;;7.18;6.47;;;23.30;99.90;;;;;;6183155;23;20005;-74
2023/08/13 02:15:01;;;;;;;6.32;5.53;;;23.30;99.90;;;;;;6183227;23;20003;-74
2023/08/13 02:17:26;;;;;;;6.72;6.22;;;23.30;99.90;;;;;;6183155;23;20012;-74
2023/08/13 02:19:52;;;;;;;6.93;6.40;;;23.30;99.90;;;;;;6183179;23;20001;-74
2023/08/13 02:22:18;;;;;;;6.90;6.35;;;23.30;99.90;;;;;;6183174;23;20438;-74
2023/08/13 02:24:43;;;;;;;7.10;6.45;;;23.20;99.90;;;;;;6183063;23;20001;-73
2023/08/13 02:27:09;;;;;;;7.15;6.45;;;23.20;99.90;;;;;;6183199;23;20011;-74
2023/08/13 02:29:35;;;;;;;6.50;6.03;;;23.10;99.90;;;;;;6183214;23;20336;-74
2023/08/13 02:32:04;;;;;;;6.90;6.40;;;23.20;99.90;;;;;;6183188;23;20005;-74
2023/08/13 02:34:33;;;;;;;6.75;6.10;;;23.20;99.90;;;;;;6183232;23;20005;-74
2023/08/13 02:37:00;;;;;;;6.53;5.95;;;23.20;99.90;;;;;;6181222;23;20448;-74
2023/08/13 02:39:25;;;;;;;7.38;6.78;;;23.30;99.90;;;;;;6183113;23;20001;-74
2023/08/13 02:41:51;;;;;;;8.65;6.45;;;23.20;99.90;;;;;;6183175;23;20005;-73
2023/08/13 02:44:17;;;;;;;6.85;6.10;;;23.20;99.90;;;;;;6182753;23;20340;-74
2023/08/13 02:46:42;;;;;;;7.30;6.60;;;23.20;99.90;;;;;;6182802;23;20068;-74
2023/08/13 02:49:08;;;;;;;7.32;5.88;;;23.20;99.90;;;;;;6182756;23;20265;-74
2023/08/13 02:51:34;;;;;;;6.72;6.13;;;23.20;99.90;;;;;;6182586;23;20023;-74
2023/08/13 02:53:59;;;;;;;8.02;6.22;;;23.20;99.90;;;;;;6182766;23;20538;-74
2023/08/13 02:56:25;;;;;;;7.32;6.53;;;23.30;99.90;;;;;;6182853;23;20001;-73
2023/08/13 02:58:51;;;;;;;6.65;6.00;;;23.30;99.90;;;;;;6182501;23;20051;-74
2023/08/13 03:01:17;;;;;;;6.25;5.82;;;23.20;99.90;;;;;;6179852;23;20001;-74
2023/08/13 03:03:42;;;;;;;7.78;6.80;;;23.20;99.90;;;;;;6178699;23;20437;-74
2023/08/13 03:06:08;;;;;;;8.77;6.30;;;23.20;99.90;;;;;;6179613;23;19997;-74
2023/08/13 03:08:34;;;;;;;6.95;6.00;;;23.20;99.90;;;;;;6179753;23;19997;-74
2023/08/13 03:10:59;;;;;;;6.45;5.72;;;23.20;99.90;;;;;;6179876;23;20009;-74
2023/08/13 03:13:25;;;;;;;6.07;5.68;;;23.30;99.90;;;;;;6179292;23;20011;-74
2023/08/13 03:15:51;;;;;;;6.50;5.95;;;23.20;99.90;;;;;;6178774;23;20357;-74
2023/08/13 03:18:16;;;;;;;5.75;5.30;;;23.20;99.90;;;;;;6178934;23;20349;-74
2023/08/13 03:20:42;;;;;;;6.22;5.82;;;23.20;99.90;;;;;;6179460;23;20005;-74
2023/08/13 03:23:08;;;;;;;5.93;5.43;;;23.20;99.90;;;;;;6178234;23;20080;-74
2023/08/13 03:25:33;;;;;;;5.57;5.13;;;23.10;99.90;;;;;;6179395;23;20008;-74
2023/08/13 03:27:59;;;;;;;8.27;6.10;;;23.10;99.90;;;;;;6179845;23;20425;-74
2023/08/13 03:30:25;;;;;;;6.20;5.47;;;23.10;99.90;;;;;;6179272;23;20005;-74
2023/08/13 03:32:50;;;;;;;6.57;5.95;;;23.10;99.90;;;;;;6179454;23;20012;-74
2023/08/13 03:35:16;;;;;;;5.72;5.32;;;23.10;99.90;;;;;;6179815;23;20063;-74
2023/08/13 03:37:42;;;;;;;6.47;5.80;;;23.00;99.90;;;;;;6177202;23;20408;-74
2023/08/13 03:40:08;;;;;;;6.50;6.00;;;23.00;99.90;;;;;;6180077;23;20008;-74
2023/08/13 03:42:34;;;;;;;6.75;6.03;;;23.00;99.90;;;;;;6177639;23;20005;-74
2023/08/13 03:45:00;;;;;;;6.65;6.10;;;23.00;99.90;;;;;;6178987;23;20233;-74
2023/08/13 03:47:25;;;;;;;6.20;5.63;;;23.00;99.90;;;;;;6179755;23;19997;-74
2023/08/13 03:49:51;;;;;;;8.50;6.63;;;23.00;99.90;;;;;;6179073;23;20012;-74
2023/08/13 03:52:17;;;;;;;7.03;6.45;;;23.10;99.90;;;;;;6179738;23;20021;-74
2023/08/13 03:54:42;;;;;;;9.25;6.25;;;23.10;99.90;;;;;;6177017;23;20008;-74
2023/08/13 03:57:08;;;;;;;6.28;5.68;;;23.10;99.90;;;;;;6176873;23;20005;-74
2023/08/13 03:59:33;;;;;;;7.78;6.15;;;23.10;99.90;;;;;;6178473;23;20012;-74
2023/08/13 04:01:59;;;;;;;6.43;5.82;;;23.10;99.90;;;;;;6178647;23;19997;-74
2023/08/13 04:04:25;;;;;;;7.45;6.75;;;23.10;99.90;;;;;;6179323;23;20333;-74
2023/08/13 04:06:52;;;;;;;6.32;5.93;;;23.10;99.90;;;;;;6178787;23;20009;-74
2023/08/13 04:09:17;;;;;;;6.97;6.28;;;23.00;99.90;;;;;;6178481;23;20004;-74
2023/08/13 04:11:44;;;;;;;9.10;7.25;;;23.10;99.90;;;;;;6178779;23;20332;-74
2023/08/13 04:14:10;;;;;;;8.63;6.32;;;23.10;99.90;;;;;;6176491;23;20008;-74
2023/08/13 04:16:35;;;;;;;8.10;7.28;;;23.10;99.90;;;;;;6175203;23;20020;-74
2023/08/13 04:19:01;;;;;;;7.32;6.60;;;23.10;99.90;;;;;;6180605;23;20004;-76
2023/08/13 04:21:27;;;;;;;6.25;5.88;;;23.10;99.90;;;;;;6182076;23;20345;-76
2023/08/13 04:23:56;;;;;;;7.15;6.45;;;23.10;99.90;;;;;;6181612;23;20471;-76
2023/08/13 04:26:22;;;;;;;7.15;6.65;;;23.00;99.90;;;;;;6180814;23;20035;-76
2023/08/13 04:28:48;;;;;;;7.45;6.80;;;23.00;99.90;;;;;;6184120;23;20051;-76
2023/08/13 04:31:15;;;;;;;8.23;7.22;;;23.00;99.90;;;;;;6183901;23;20005;-76
2023/08/13 04:33:41;;;;;;;7.82;7.03;;;23.10;99.90;;;;;;6182382;23;20001;-76
2023/08/13 04:36:06;;;;;;;7.45;6.75;;;23.10;99.90;;;;;;6184118;23;20001;-76
2023/08/13 04:38:32;;;;;;;7.60;7.05;;;23.00;99.90;;;;;;6183731;23;20356;-76
2023/08/13 04:40:58;;;;;;;9.55;7.75;;;23.00;99.90;;;;;;6184122;23;20008;-76
2023/08/13 04:43:24;;;;;;;8.13;7.40;;;23.00;99.90;;;;;;6183739;23;20004;-76
2023/08/13 04:45:49;;;;;;;14.45;7.10;;;23.10;99.90;;;;;;6182639;23;20001;-76
2023/08/13 04:48:41;;;;;;;7.13;6.30;;;23.10;99.90;;;;;;6182113;23;20433;-76
2023/08/13 04:51:06;;;;;;;8.30;7.50;;;23.10;99.90;;;;;;6183690;23;20012;-77
2023/08/13 04:53:32;;;;;;;7.03;6.53;;;23.10;99.90;;;;;;6183498;23;20044;-76
2023/08/13 04:55:58;;;;;;;7.05;6.55;;;23.10;99.90;;;;;;6183899;23;20036;-76
2023/08/13 04:58:24;;;;;;;7.57;6.72;;;23.10;99.90;;;;;;6183902;23;20005;-76
2023/08/13 05:00:49;;;;;;;9.57;7.57;;;23.10;99.90;;;;;;6183515;23;20008;-76
2023/08/13 05:03:18;;;;;;;7.60;7.00;;;23.10;99.90;;;;;;6183404;23;20001;-76
2023/08/13 05:05:43;;;;;;;7.93;6.90;;;23.20;99.90;;;;;;6183776;23;19997;-76
2023/08/13 05:08:09;;;;;;;7.65;6.78;;;23.20;99.90;;;;;;6177801;23;20005;-76
2023/08/13 05:10:35;;;;;;;8.68;7.65;;;23.30;99.90;;;;;;6176529;23;20019;-76
2023/08/13 05:13:01;;;;;;;7.55;6.85;;;23.30;99.90;;;;;;6176452;23;20012;-77
2023/08/13 05:15:27;;;;;;;8.40;7.65;;;23.30;99.90;;;;;;6177374;23;20009;-76
2023/08/13 05:17:53;;;;;;;7.78;7.13;;;23.30;99.90;;;;;;6178041;23;20005;-76
2023/08/13 05:20:22;;;;;;;8.05;7.38;;;23.30;99.90;;;;;;6178847;23;20521;-76
2023/08/13 05:22:47;;;;;;;7.95;7.25;;;23.30;99.90;;;;;;6176913;23;20837;-76
2023/08/13 05:25:13;;;;;;;7.40;6.88;;;23.40;99.90;;;;;;6178100;23;20031;-76
2023/08/13 05:27:39;;;;;;;8.30;7.45;;;23.30;99.90;;;;;;6179125;23;19990;-76
2023/08/13 05:30:05;;;;;;;7.65;7.15;;;23.30;99.90;;;;;;6182342;23;20310;-76
2023/08/13 05:32:31;;;;;;;7.50;7.00;;;23.30;99.90;;;;;;6183429;23;19998;-76
2023/08/13 05:34:56;;;;;;;8.90;8.25;;;23.20;99.90;;;;;;6183645;23;20027;-76
2023/08/13 05:37:22;;;;;;;8.23;7.38;;;23.30;99.90;;;;;;6183414;23;20008;-76
2023/08/13 05:39:48;;;;;;;7.60;7.00;;;23.30;99.90;;;;;;6183482;23;20333;-76
2023/08/13 05:42:13;;;;;;;7.80;7.05;;;23.30;99.90;;;;;;6183415;23;20376;-76
2023/08/13 05:44:39;;;;;;;8.35;7.60;;;23.30;99.90;;;;;;6183346;23;20304;-76
2023/08/13 05:47:05;;;;;;;7.63;7.03;;;23.30;99.90;;;;;;6183259;23;20001;-76
2023/08/13 05:49:30;;;;;;;7.55;6.93;;;23.30;99.90;;;;;;6177924;23;20348;-76
2023/08/13 05:51:56;;;;;;;7.57;6.97;;;23.30;99.90;;;;;;6177837;23;20092;-76
2023/08/13 05:54:22;;;;;;;8.68;7.28;;;23.30;99.90;;;;;;6177222;23;20068;-76
2023/08/13 05:56:48;;;;;;;7.60;6.90;;;23.30;99.90;;;;;;6177960;23;20092;-76
2023/08/13 05:59:14;;;;;;;8.13;7.00;;;23.30;99.90;;;;;;6178078;23;20039;-77
2023/08/13 06:01:40;;;;;;;8.18;7.40;;;23.40;99.90;;;;;;6178380;23;19997;-76
2023/08/13 06:04:06;;;;;;;7.45;6.85;;;23.40;99.90;;;;;;6177565;23;20001;-76
2023/08/13 06:06:32;;;;;;;7.55;6.88;;;23.50;99.90;;;;;;6179000;23;20001;-76
2023/08/13 06:08:57;;;;;;;7.68;7.05;;;23.50;99.90;;;;;;6177460;23;20294;-76
2023/08/13 06:11:23;;;;;;;8.32;7.72;;;23.60;99.90;;;;;;6178580;23;20429;-76
2023/08/13 06:13:50;;;;;;;6.50;6.10;;;23.70;99.90;;;;;;6178317;23;20008;-76
2023/08/13 06:16:16;;;;;;;7.57;7.07;;;23.70;99.90;;;;;;6177669;23;20450;-76
2023/08/13 06:18:42;;;;;;;8.35;6.72;;;23.80;99.90;;;;;;6182267;23;20005;-74
2023/08/13 06:21:07;;;;;;;9.93;7.10;;;23.90;99.90;;;;;;6183501;23;20035;-73
2023/08/13 06:23:33;;;;;;;7.78;7.05;;;24.00;99.90;;;;;;6184343;23;20036;-74
2023/08/13 06:25:59;;;;;;;8.02;7.40;;;24.10;99.90;;;;;;6185246;23;20048;-74
2023/08/13 06:28:24;;;;;;;8.57;7.65;;;24.10;99.90;;;;;;6185072;23;20433;-74
2023/08/13 06:30:50;;;;;;;6.90;6.35;;;24.20;99.90;;;;;;6180800;23;20009;-74
2023/08/13 06:33:16;;;;;;;8.13;7.03;;;24.20;99.90;;;;;;6179190;23;20012;-74
2023/08/13 06:35:46;;;;;;;7.50;6.78;;;24.30;99.90;;;;;;6180650;23;20388;-74
2023/08/13 06:38:13;;;;;;;8.23;6.82;;;24.40;99.90;;;;;;6179847;23;20009;-74
2023/08/13 06:40:38;;;;;;;7.55;6.93;;;24.40;99.90;;;;;;6178235;23;20029;-74
2023/08/13 06:43:04;;;;;;;9.32;6.50;;;24.50;99.90;;;;;;6179908;23;20368;-74
2023/08/13 06:45:30;;;;;;;7.25;6.65;;;24.60;99.90;;;;;;6179559;23;20001;-74
2023/08/13 06:47:59;;;;;;;7.72;6.75;;;24.70;99.90;;;;;;6180149;23;20352;-74
2023/08/13 06:50:26;;;;;;;7.95;7.05;;;24.70;99.90;;;;;;6178991;23;20004;-74
2023/08/13 06:52:53;;;;;;;7.65;7.10;;;24.80;99.90;;;;;;6177679;23;20465;-74
2023/08/13 06:55:18;;;;;;;7.57;6.97;;;24.80;99.90;;;;;;6180354;23;20015;-75
2023/08/13 06:57:46;;;;;;;7.75;7.13;;;24.80;99.90;;;;;;6180087;23;20198;-74
2023/08/13 07:00:13;;;;;;;6.65;6.18;;;24.80;99.90;;;;;;6179924;23;20623;-74
2023/08/13 07:02:38;;;;;;;7.45;6.95;;;24.80;99.90;;;;;;6185159;23;19997;-74
2023/08/13 07:05:05;;;;;;;7.25;6.72;;;24.90;99.90;;;;;;6185021;23;19997;-74
2023/08/13 07:07:33;;;;;;;7.68;7.05;;;24.90;99.90;;;;;;6184891;23;20429;-73
2023/08/13 07:09:59;;;;;;;6.55;6.15;;;24.80;99.90;;;;;;6185056;23;20028;-74
2023/08/13 07:12:25;;;;;;;7.57;6.88;;;24.80;99.90;;;;;;6185017;23;20005;-74
2023/08/13 07:14:51;;;;;;;7.05;6.45;;;24.80;99.90;;;;;;6184822;23;20001;-74
2023/08/13 07:17:16;;;;;;;6.65;6.25;;;24.90;99.90;;;;;;6184860;23;20017;-73
2023/08/13 07:19:42;;;;;;;6.32;5.75;;;24.90;99.90;;;;;;6179187;23;20013;-74
2023/08/13 07:22:08;;;;;;;6.60;6.00;;;25.00;99.90;;;;;;6179427;23;20488;-74
2023/08/13 07:24:34;;;;;;;6.90;5.90;;;25.00;99.90;;;;;;6179271;23;20444;-74
2023/08/13 07:26:59;;;;;;;6.28;5.68;;;25.10;99.90;;;;;;6180106;23;20025;-74
2023/08/13 07:29:25;;;;;;;5.82;5.40;;;25.20;99.90;;;;;;6179234;23;20005;-74
2023/08/13 07:31:51;;;;;;;5.85;5.25;;;25.30;99.90;;;;;;6179652;23;20190;-74
2023/08/13 07:34:17;;;;;;;5.78;5.40;;;25.30;99.90;;;;;;6179771;23;20005;-74
2023/08/13 07:36:42;;;;;;;6.00;5.57;;;25.30;99.90;;;;;;6177795;23;20005;-74
2023/08/13 07:39:10;;;;;;;7.22;6.05;;;25.40;99.90;;;;;;6179736;23;20580;-74
2023/08/13 07:41:36;;;;;;;5.85;5.35;;;25.40;99.90;;;;;;6177585;23;20005;-74
2023/08/13 07:44:02;;;;;;;6.70;6.10;;;25.40;99.90;;;;;;6179138;23;20001;-74
2023/08/13 07:46:27;;;;;;;5.85;5.43;;;25.40;99.90;;;;;;6180099;23;20004;-74
2023/08/13 07:48:53;;;;;;;6.15;5.72;;;25.50;99.90;;;;;;6178954;23;19997;-74
2023/08/13 07:51:20;;;;;;;7.85;5.70;;;25.50;99.90;;;;;;6182787;23;20024;-74
2023/08/13 07:53:46;;;;;;;5.72;5.43;;;25.50;99.90;;;;;;6182956;23;20009;-74
2023/08/13 07:56:12;;;;;;;6.05;5.30;;;25.50;99.90;;;;;;6184873;23;20072;-76
2023/08/13 07:58:41;;;;;;;5.72;5.20;;;25.60;99.90;;;;;;6184708;23;20004;-77
2023/08/13 08:01:07;;;;;;;5.70;5.20;;;25.60;99.90;;;;;;6184592;23;20005;-76
2023/08/13 08:03:33;;;;;;;5.47;5.00;;;25.70;99.90;;;;;;6183054;23;20001;-77
2023/08/13 08:05:59;;;;;;;5.78;5.18;;;25.70;99.90;;;;;;6182987;23;20011;-76
2023/08/13 08:08:24;;;;;;;6.05;5.43;;;25.80;99.90;;;;;;6184451;23;20368;-76
2023/08/13 08:10:50;;;;;;;5.88;5.57;;;25.80;99.90;;;;;;6184266;23;20409;-76
2023/08/13 08:13:16;;;;;;;7.10;5.22;;;25.90;99.90;;;;;;6184329;23;20101;-76
2023/08/13 08:15:44;;;;;;;5.88;5.35;;;25.90;99.90;;;;;;6184470;23;20337;-76
2023/08/13 08:18:10;;;;;;;9.23;6.07;;;25.90;99.90;;;;;;6183490;23;20012;-76
2023/08/13 08:20:36;;;;;;;6.53;5.93;;;25.90;99.90;;;;;;6179641;23;20009;-76
2023/08/13 08:23:01;;;;;;;6.43;5.90;;;25.90;99.90;;;;;;6177174;23;20013;-76
2023/08/13 08:25:28;;;;;;;6.65;6.25;;;26.00;99.90;;;;;;6178869;23;19993;-77
2023/08/13 08:27:54;;;;;;;6.53;6.13;;;25.90;99.90;;;;;;6179425;23;20028;-76
2023/08/13 08:30:19;;;;;;;9.35;6.18;;;26.00;99.90;;;;;;6178971;23;20001;-76
2023/08/13 08:32:45;;;;;;;6.82;6.22;;;26.00;99.90;;;;;;6177462;23;20059;-74
2023/08/13 08:35:11;;;;;;;7.40;6.80;;;26.00;99.90;;;;;;6178687;23;20005;-74
2023/08/13 08:37:36;;;;;;;6.13;5.40;;;26.10;99.90;;;;;;6178432;23;20384;-74
2023/08/13 08:40:03;;;;;;;5.82;5.43;;;26.10;99.90;;;;;;6179136;23;20013;-74
2023/08/13 08:42:30;;;;;;;6.07;5.68;;;26.10;99.90;;;;;;6183851;23;19997;-74
2023/08/13 08:44:59;;;;;;;6.63;6.03;;;26.10;99.90;;;;;;6183948;23;20008;-76
2023/08/13 08:47:26;;;;;;;5.95;5.10;;;26.10;99.90;;;;;;6183800;23;20029;-76
2023/08/13 08:49:55;;;;;;;6.38;5.90;;;26.10;99.90;;;;;;6184103;23;20032;-76
2023/08/13 08:52:21;;;;;;;6.95;6.35;;;26.10;99.90;;;;;;6183704;23;20464;-76
2023/08/13 08:54:48;;;;;;;5.90;5.40;;;26.20;99.90;;;;;;6183979;23;20009;-76
2023/08/13 08:57:17;;;;;;;6.15;5.60;;;26.20;99.90;;;;;;6182333;23;20009;-76
2023/08/13 08:59:44;;;;;;;6.13;5.53;;;26.20;99.90;;;;;;6182103;23;20005;-76
2023/08/13 09:02:12;;;;;;;6.82;5.68;;;26.20;99.90;;;;;;6183715;23;20001;-77
2023/08/13 09:04:37;;;;;;;7.22;5.85;;;26.30;99.90;;;;;;6183924;23;20008;-76
2023/08/13 09:07:03;;;;;;;6.38;5.88;;;26.30;99.90;;;;;;6183108;23;20088;-76
2023/08/13 09:09:30;;;;;;;6.18;5.63;;;26.30;99.90;;;;;;6184086;23;20008;-76
2023/08/13 09:11:56;;;;;;;6.18;5.68;;;26.30;99.90;;;;;;6184061;23;20079;-76
2023/08/13 09:14:23;;;;;;;6.43;5.63;;;26.40;99.90;;;;;;6177167;23;20094;-77
2023/08/13 09:16:54;;;;;;;6.32;5.82;;;26.50;99.90;;;;;;6178325;23;20005;-76
2023/08/13 09:19:23;;;;;;;6.57;5.97;;;26.50;99.90;;;;;;6179140;23;20008;-77
2023/08/13 09:21:58;;;;;;;7.68;5.60;;;26.60;99.90;;;;;;6178923;23;20591;-76
2023/08/13 09:24:36;;;;;;;5.80;5.40;;;26.70;99.90;;;;;;6175482;23;20013;-74
2023/08/13 09:27:03;;;;;;;9.10;6.15;;;26.70;99.90;;;;;;6178304;23;20396;-73
2023/08/13 09:29:30;;;;;;;7.88;6.22;;;26.70;99.90;;;;;;6178227;23;20008;-74
2023/08/13 09:31:57;;;;;;;7.47;6.28;;;26.70;99.90;;;;;;6179087;23;20438;-74
2023/08/13 09:34:24;;;;;;;6.65;6.00;;;26.70;99.90;;;;;;6177881;23;20378;-74
2023/08/13 09:36:52;;;;;;;6.18;5.68;;;26.80;99.90;;;;;;6176896;23;20449;-73
2023/08/13 09:39:18;;;;;;;8.18;7.03;;;26.90;99.90;;;;;;6179128;23;20009;-73
2023/08/13 09:41:45;;;;;;;6.45;5.95;;;27.00;99.90;;;;;;6178376;23;20079;-76
2023/08/13 09:44:15;;;;;;;10.20;6.50;;;27.00;99.90;;;;;;6178597;23;20441;-76
2023/08/13 09:46:45;;;;;;;7.13;5.88;;;27.00;99.90;;;;;;6177406;23;20372;-76
2023/08/13 09:49:11;;;;;;;5.70;5.20;;;27.00;99.90;;;;;;6178208;23;20430;-76
2023/08/13 09:51:40;;;;;;;5.70;5.25;;;27.10;99.90;;;;;;6176858;23;20133;-76
2023/08/13 09:54:13;;;;;;;5.80;5.38;;;27.20;99.90;;;;;;6178660;23;20766;-74
2023/08/13 09:56:44;;;;;;;5.65;5.30;;;27.30;99.90;;;;;;6178759;23;20001;-73
2023/08/13 09:59:11;;;;;;;8.80;5.43;;;27.20;99.90;;;;;;6177653;23;19997;-74
2023/08/13 10:01:40;;;;;;;5.75;5.20;;;27.40;99.90;;;;;;6180758;23;20433;-76
2023/08/13 10:04:10;;;;;;;5.90;5.50;;;27.40;99.90;;;;;;6183214;23;20051;-76
2023/08/13 10:06:37;;;;;;;5.85;5.47;;;27.40;99.90;;;;;;6183446;23;20032;-76
2023/08/13 10:09:04;;;;;;;7.75;6.00;;;27.40;99.90;;;;;;6183200;23;20005;-76
2023/08/13 10:11:29;;;;;;;7.05;6.45;;;27.40;99.90;;;;;;6183438;23;20001;-76
2023/08/13 10:13:55;;;;;;;6.40;5.97;;;27.50;99.90;;;;;;6181623;23;20082;-76
2023/08/13 10:16:22;;;;;;;6.25;5.68;;;27.50;99.90;;;;;;6183322;23;20333;-76
2023/08/13 10:18:48;;;;;;;7.55;6.45;;;27.70;99.90;;;;;;6181675;23;20044;-76
2023/08/13 10:21:14;;;;;;;7.55;6.25;;;27.80;99.90;;;;;;6183343;23;20005;-76
2023/08/13 10:23:43;;;;;;;6.32;5.82;;;28.00;99.90;;;;;;6181434;23;20028;-76
2023/08/13 10:26:09;;;;;;;6.55;6.05;;;28.00;99.90;;;;;;6181869;23;20329;-76
2023/08/13 10:28:35;;;;;;;6.97;6.32;;;28.00;99.90;;;;;;6183200;23;20004;-76
2023/08/13 10:31:48;;;;;;;6.05;5.45;;;28.00;99.90;;;;;;6183089;23;20028;-76
2023/08/13 10:34:14;;;;;;;6.05;5.63;;;28.10;99.90;;;;;;6063056;23;20007;-76
2023/08/13 10:36:44;;;;;;;6.40;5.80;;;28.20;99.90;;;;;;6063477;23;20107;-76
2023/08/13 10:39:29;;;;;;;6.25;5.57;;;28.20;99.90;;;;;;6129988;23;20009;-76
2023/08/13 10:41:54;;;;;;;6.15;5.60;;;28.20;99.90;;;;;;6181671;23;20084;-76
2023/08/13 10:44:39;;;;;;;8.15;5.63;;;28.30;99.90;;;;;;6183202;23;20024;-76
2023/08/13 10:47:05;;;;;;;6.10;5.70;;;28.40;99.90;;;;;;6181422;23;20321;-76
2023/08/13 10:49:31;;;;;;;5.97;5.47;;;28.40;99.90;;;;;;6182934;23;20036;-76
2023/08/13 10:52:03;;;;;;;6.18;5.65;;;28.50;99.90;;;;;;6182921;23;20013;-76
2023/08/13 10:54:29;;;;;;;4.90;4.60;;;28.60;99.90;;;;;;6183229;23;20001;-77
2023/08/13 10:56:58;;;;;;;7.82;5.43;;;28.60;99.90;;;;;;6181566;23;20033;-76
2023/08/13 10:59:32;;;;;;;6.15;5.72;;;28.70;99.90;;;;;;6183148;23;20016;-76
2023/08/13 11:02:19;;;;;;;6.32;5.93;;;28.80;99.90;;;;;;6181257;23;20032;-76
2023/08/13 11:04:46;;;;;;;5.35;5.00;;;28.90;99.90;;;;;;6183092;23;20008;-76
2023/08/13 11:07:13;;;;;;;6.07;5.57;;;28.90;99.90;;;;;;6183067;23;20406;-76
2023/08/13 11:09:40;;;;;;;6.57;5.25;;;29.00;99.90;;;;;;6184197;23;20506;-76
2023/08/13 11:12:08;;;;;;;6.22;5.20;;;29.00;99.90;;;;;;6185047;23;20337;-76
2023/08/13 11:14:35;;;;;;;6.00;5.60;;;29.00;99.90;;;;;;6184845;23;19993;-76
2023/08/13 11:17:01;;;;;;;7.43;5.25;;;29.10;99.90;;;;;;6184501;23;20031;-76
2023/08/13 11:19:27;;;;;;;5.93;5.53;;;29.20;99.90;;;;;;6184606;23;20001;-76
2023/08/13 11:21:54;;;;;;;6.30;5.72;;;29.30;99.90;;;;;;6183108;23;20006;-76
2023/08/13 11:24:21;;;;;;;6.50;5.78;;;29.40;99.90;;;;;;6181004;23;20356;-76
2023/08/13 11:26:49;;;;;;;5.97;5.45;;;29.50;99.90;;;;;;6182592;23;20031;-76
2023/08/13 11:29:19;;;;;;;5.47;5.07;;;29.60;99.90;;;;;;6180867;23;20088;-76
2023/08/13 11:31:45;;;;;;;5.90;5.07;;;29.70;99.90;;;;;;6182797;23;20001;-76
2023/08/13 11:34:11;;;;;;;5.82;5.30;;;29.70;99.90;;;;;;6183303;23;20076;-76
2023/08/13 11:36:36;;;;;;;6.57;5.40;;;29.80;99.90;;;;;;6184028;23;20425;-76
2023/08/13 11:39:03;;;;;;;9.57;5.30;;;29.80;99.90;;;;;;6182507;23;20464;-76
2023/08/13 11:41:29;;;;;;;6.30;5.40;;;29.80;99.90;;;;;;6184902;23;20005;-76
2023/08/13 11:43:55;;;;;;;5.63;5.15;;;29.80;99.90;;;;;;6184449;23;20001;-76
2023/08/13 11:46:21;;;;;;;6.82;5.05;;;29.80;99.90;;;;;;6182093;23;20333;-76
2023/08/13 11:48:54;;;;;;;6.20;5.63;;;29.90;99.90;;;;;;6183612;23;20001;-76
2023/08/13 11:51:25;;;;;;;4.82;4.50;;;30.10;99.90;;;;;;6184366;23;20013;-76
2023/08/13 11:53:51;;;;;;;5.53;4.40;;;30.10;99.90;;;;;;6184552;23;20028;-76
2023/08/13 11:56:18;;;;;;;5.35;5.05;;;30.20;99.90;;;;;;6184551;23;20008;-76
2023/08/13 11:58:44;;;;;;;5.45;4.90;;;30.30;99.90;;;;;;6184322;23;20005;-76
2023/08/13 12:01:11;;;;;;;6.13;4.78;;;30.50;99.90;;;;;;6184352;23;20087;-76
2023/08/13 12:03:39;;;;;;;5.00;4.55;;;30.60;99.90;;;;;;6182693;23;20036;-76
2023/08/13 12:06:08;;;;;;;5.30;4.68;;;30.50;99.90;;;;;;6184267;23;20002;-76
2023/08/13 12:08:34;;;;;;;5.30;5.00;;;30.50;99.90;;;;;;6184245;23;20051;-76
2023/08/13 12:11:00;;;;;;;5.50;5.10;;;30.50;99.90;;;;;;6184526;23;20032;-76
2023/08/13 12:13:30;;;;;;;4.63;4.20;;;30.60;99.90;;;;;;6184318;23;20008;-76
2023/08/13 12:15:56;;;;;;;5.38;4.90;;;30.70;99.90;;;;;;6184163;23;20369;-76
2023/08/13 12:18:22;;;;;;;4.80;4.55;;;30.90;99.90;;;;;;6184105;23;20005;-76
2023/08/13 12:20:47;;;;;;;6.35;4.13;;;30.90;99.90;;;;;;6183750;23;20055;-76
2023/08/13 12:23:13;;;;;;;6.30;5.13;;;31.00;99.90;;;;;;6184123;23;20001;-76
2023/08/13 12:25:39;;;;;;;4.82;4.43;;;31.00;99.90;;;;;;6184164;23;20361;-76
2023/08/13 12:28:05;;;;;;;4.70;4.40;;;30.90;99.90;;;;;;6183736;23;20025;-76
2023/08/13 12:30:31;;;;;;;6.57;4.78;;;30.90;99.90;;;;;;6184047;23;20027;-76
2023/08/13 12:32:56;;;;;;;5.25;4.70;;;30.90;99.90;;;;;;6183900;23;20005;-76
2023/08/13 12:35:22;;;;;;;4.70;4.28;;;31.00;99.90;;;;;;6184006;23;20005;-76
2023/08/13 12:37:48;;;;;;;5.55;4.97;;;31.10;99.90;;;;;;6182163;23;20358;-76
2023/08/13 12:40:15;;;;;;;6.05;4.40;;;31.20;99.90;;;;;;6184185;23;20013;-76
2023/08/13 12:42:41;;;;;;;4.57;4.32;;;31.30;99.90;;;;;;6184107;23;19997;-76
2023/08/13 12:45:08;;;;;;;4.97;4.47;;;31.30;99.90;;;;;;6184002;23;20036;-76